createdAt,value
2017-08-24T00:00:38.129Z,100245
2017-08-24T00:05:41.315Z,100251
2017-08-24T00:10:44.505Z,100249
2017-08-24T00:15:47.722Z,100246
2017-08-24T00:20:50.918Z,100254
2017-08-24T00:25:54.118Z,100254
2017-08-24T00:30:57.292Z,100258
2017-08-24T00:36:00.495Z,100264
2017-08-24T00:41:03.668Z,100256
2017-08-24T00:46:06.837Z,100263
2017-08-24T00:51:10.106Z,100264
2017-08-24T00:56:13.421Z,100256
2017-08-24T01:01:16.615Z,100257
2017-08-24T01:06:19.799Z,100254
2017-08-24T01:11:22.992Z,100233
2017-08-24T01:16:26.196Z,100230
2017-08-24T01:21:29.367Z,100230
2017-08-24T01:26:32.715Z,100233
2017-08-24T01:31:35.911Z,100229
2017-08-24T01:36:39.092Z,100226
2017-08-24T01:41:42.285Z,100227
2017-08-24T01:46:45.453Z,100227
2017-08-24T01:51:48.646Z,100240
2017-08-24T01:56:51.848Z,100252
2017-08-24T02:01:55.039Z,100255
2017-08-24T02:06:58.319Z,100264
2017-08-24T02:12:01.486Z,100269
2017-08-24T02:17:04.685Z,100257
2017-08-24T02:22:07.898Z,100263
2017-08-24T02:27:11.093Z,100265
2017-08-24T02:32:14.294Z,100252
2017-08-24T02:37:17.474Z,100263
2017-08-24T02:42:20.661Z,100250
2017-08-24T02:47:23.856Z,100244
2017-08-24T02:52:27.056Z,100241
2017-08-24T02:57:30.242Z,100244
2017-08-24T03:02:33.463Z,100234
2017-08-24T03:07:36.637Z,100242
2017-08-24T03:12:39.853Z,100249
2017-08-24T03:17:43.215Z,100242
2017-08-24T03:22:46.394Z,100254
2017-08-24T03:27:49.630Z,100250
2017-08-24T03:32:52.841Z,100250
2017-08-24T03:37:56.050Z,100253
2017-08-24T03:42:59.245Z,100255
2017-08-24T03:48:02.461Z,100250
2017-08-24T03:53:05.654Z,100259
2017-08-24T03:58:08.840Z,100268
2017-08-24T04:03:12.084Z,100272
2017-08-24T04:08:15.281Z,100277
2017-08-24T04:13:18.478Z,100270
2017-08-24T04:18:21.677Z,100278
2017-08-24T04:23:24.948Z,100288
2017-08-24T04:28:28.133Z,100287
2017-08-24T04:33:31.423Z,100290
2017-08-24T04:38:34.750Z,100293
2017-08-24T04:43:37.942Z,100303
2017-08-24T04:48:41.130Z,100312
2017-08-24T04:53:44.331Z,100302
2017-08-24T04:58:47.499Z,100307
2017-08-24T05:03:50.700Z,100306
2017-08-24T05:08:53.886Z,100309
2017-08-24T05:13:57.053Z,100319
2017-08-24T05:19:00.273Z,100317
2017-08-24T05:24:03.490Z,100325
2017-08-24T05:29:06.686Z,100318
2017-08-24T05:34:09.870Z,100323
2017-08-24T05:39:13.086Z,100339
2017-08-24T05:44:16.275Z,100353
2017-08-24T05:49:19.460Z,100360
2017-08-24T05:54:22.627Z,100356
2017-08-24T05:59:25.824Z,100351
2017-08-24T06:04:29.021Z,100348
2017-08-24T06:09:32.218Z,100347
2017-08-24T06:14:35.553Z,100367
2017-08-24T06:19:38.713Z,100365
2017-08-24T06:24:41.907Z,100366
2017-08-24T06:29:45.153Z,100372
2017-08-24T06:34:48.442Z,100377
2017-08-24T06:39:51.630Z,100376
2017-08-24T06:44:54.855Z,100382
2017-08-24T06:49:58.028Z,100378
2017-08-24T06:55:01.207Z,100386
2017-08-24T07:00:04.406Z,100386
2017-08-24T07:05:07.597Z,100400
2017-08-24T07:10:10.786Z,100404
2017-08-24T07:15:13.966Z,100401
2017-08-24T07:20:17.174Z,100416
2017-08-24T07:25:20.364Z,100423
2017-08-24T07:30:23.588Z,100433
2017-08-24T07:35:26.801Z,100429
2017-08-24T07:40:29.988Z,100433
2017-08-24T07:45:33.200Z,100440
2017-08-24T07:50:36.400Z,100444
2017-08-24T07:55:39.624Z,100439
2017-08-24T08:00:42.912Z,100446
2017-08-24T08:05:46.411Z,100455
2017-08-24T08:10:49.584Z,100455
2017-08-24T08:15:52.864Z,100459
2017-08-24T08:20:56.075Z,100456
2017-08-24T08:25:59.272Z,100460
2017-08-24T08:31:02.461Z,100469
2017-08-24T08:36:05.663Z,100483
2017-08-24T08:41:08.845Z,100476
2017-08-24T08:46:12.021Z,100472
2017-08-24T08:51:15.208Z,100488
2017-08-24T08:56:18.399Z,100494
2017-08-24T09:01:21.592Z,100497
2017-08-24T09:06:24.806Z,100510
2017-08-24T09:11:28.035Z,100512
2017-08-24T09:16:31.232Z,100512
2017-08-24T09:21:34.446Z,100522
2017-08-24T09:26:37.647Z,100524
2017-08-24T09:31:40.834Z,100530
2017-08-24T09:36:44.021Z,100529
2017-08-24T09:41:47.202Z,100529
2017-08-24T09:46:50.386Z,100528
2017-08-24T09:51:53.577Z,100540
2017-08-24T09:56:56.764Z,100536
2017-08-24T10:01:59.942Z,100555
2017-08-24T10:07:03.122Z,100541
2017-08-24T10:12:06.303Z,100538
2017-08-24T10:17:09.528Z,100556
2017-08-24T10:22:12.722Z,100545
2017-08-24T10:27:15.915Z,100543
2017-08-24T10:32:19.217Z,100544
2017-08-24T10:37:22.421Z,100532
2017-08-24T10:42:25.627Z,100537
2017-08-24T10:47:28.829Z,100539
2017-08-24T10:52:31.989Z,100542
2017-08-24T10:57:35.197Z,100539
2017-08-24T11:02:38.390Z,100547
2017-08-24T11:07:41.584Z,100548
2017-08-24T11:12:44.777Z,100550
2017-08-24T11:17:47.968Z,100553
2017-08-24T11:22:51.178Z,100560
2017-08-24T11:27:54.375Z,100554
2017-08-24T11:32:57.612Z,100564
2017-08-24T11:38:00.789Z,100564
2017-08-24T11:43:03.970Z,100565
2017-08-24T11:48:07.219Z,100564
2017-08-24T11:53:10.415Z,100578
2017-08-24T11:58:13.603Z,100587
2017-08-24T12:03:16.781Z,100572
2017-08-24T12:08:19.986Z,100573
2017-08-24T12:13:23.190Z,100565
2017-08-24T12:18:26.393Z,100569
2017-08-24T12:23:29.545Z,100570
2017-08-24T12:28:32.755Z,100573
2017-08-24T12:33:35.957Z,100572
2017-08-24T12:38:39.170Z,100574
2017-08-24T12:43:42.370Z,100576
2017-08-24T12:48:45.622Z,100577
2017-08-24T12:53:48.808Z,100564
2017-08-24T12:58:52.018Z,100565
2017-08-24T13:03:55.222Z,100557
2017-08-24T13:08:58.438Z,100560
2017-08-24T13:14:01.651Z,100552
2017-08-24T13:19:04.811Z,100556
2017-08-24T13:24:07.994Z,100553
2017-08-24T13:29:11.188Z,100557
2017-08-24T13:34:14.378Z,100558
2017-08-24T13:39:17.554Z,100553
2017-08-24T13:44:20.798Z,100555
2017-08-24T13:49:23.987Z,100555
2017-08-24T13:54:27.200Z,100559
2017-08-24T13:59:30.418Z,100553
2017-08-24T14:04:33.633Z,100552
2017-08-24T14:09:36.823Z,100547
2017-08-24T14:14:40.177Z,100554
2017-08-24T14:19:43.388Z,100549
2017-08-24T14:24:46.592Z,100553
2017-08-24T14:29:49.790Z,100553
2017-08-24T14:34:52.971Z,100555
2017-08-24T14:39:56.322Z,100559
2017-08-24T14:44:59.525Z,100561
2017-08-24T14:50:02.730Z,100558
2017-08-24T14:55:05.949Z,100558
2017-08-24T15:00:09.154Z,100556
2017-08-24T15:05:12.355Z,100552
2017-08-24T15:10:15.513Z,100552
2017-08-24T15:15:18.720Z,100554
2017-08-24T15:20:21.955Z,100558
2017-08-24T15:25:25.150Z,100556
2017-08-24T15:30:28.333Z,100555
2017-08-24T15:35:31.547Z,100550
2017-08-24T15:40:34.710Z,100543
2017-08-24T15:45:37.909Z,100550
2017-08-24T15:50:41.121Z,100543
2017-08-24T15:55:44.334Z,100543
2017-08-24T16:00:47.479Z,100554
2017-08-24T16:05:50.702Z,100551
2017-08-24T16:10:53.889Z,100553
2017-08-24T16:15:57.104Z,100561
2017-08-24T16:21:00.321Z,100552
2017-08-24T16:26:03.531Z,100558
2017-08-24T16:31:06.710Z,100561
2017-08-24T16:36:10.029Z,100564
2017-08-24T16:41:13.223Z,100563
2017-08-24T16:46:16.455Z,100561
2017-08-24T16:51:19.664Z,100556
2017-08-24T16:56:23.022Z,100562
2017-08-24T17:01:26.306Z,100544
2017-08-24T17:06:29.517Z,100547
2017-08-24T17:11:32.700Z,100557
2017-08-24T17:16:35.910Z,100559
2017-08-24T17:21:39.109Z,100551
2017-08-24T17:26:42.315Z,100557
2017-08-24T17:31:45.537Z,100559
2017-08-24T17:36:48.981Z,100573
2017-08-24T17:41:53.304Z,100563
2017-08-24T17:46:56.489Z,100568
2017-08-24T17:52:00.590Z,100573
2017-08-24T17:57:03.792Z,100580
2017-08-24T18:02:07.168Z,100571
2017-08-24T18:07:10.380Z,100588
2017-08-24T18:12:13.681Z,100583
2017-08-24T18:17:16.889Z,100593
2017-08-24T18:22:20.118Z,100600
2017-08-24T18:27:23.366Z,100592
2017-08-24T18:32:26.556Z,100580
2017-08-24T18:37:29.790Z,100592
2017-08-24T18:42:33.017Z,100593
2017-08-24T18:47:36.283Z,100595
2017-08-24T18:52:39.518Z,100605
2017-08-24T18:57:42.697Z,100604
2017-08-24T19:02:46.001Z,100605
2017-08-24T19:07:49.181Z,100610
2017-08-24T19:12:52.429Z,100611
2017-08-24T19:17:55.826Z,100601
2017-08-24T19:22:59.044Z,100608
2017-08-24T19:28:02.262Z,100611
2017-08-24T19:33:05.553Z,100611
2017-08-24T19:38:08.860Z,100615
2017-08-24T19:43:12.019Z,100625
2017-08-24T19:48:15.210Z,100622
2017-08-24T19:53:18.389Z,100630
2017-08-24T19:58:21.538Z,100631
2017-08-24T20:03:24.696Z,100637
2017-08-24T20:08:28.067Z,100629
2017-08-24T20:13:31.287Z,100632
2017-08-24T20:18:34.475Z,100627
2017-08-24T20:23:37.631Z,100623
2017-08-24T20:28:40.865Z,100626
2017-08-24T20:33:44.088Z,100613
2017-08-24T20:38:47.288Z,100620
2017-08-24T20:43:50.484Z,100613
2017-08-24T20:48:53.695Z,100610
2017-08-24T20:53:56.898Z,100606
2017-08-24T20:59:00.239Z,100600
2017-08-24T21:04:03.582Z,100603
2017-08-24T21:09:06.788Z,100602
2017-08-24T21:14:09.967Z,100607
2017-08-24T21:19:13.166Z,100608
2017-08-24T21:24:16.362Z,100614
2017-08-24T21:29:19.572Z,100617
2017-08-24T21:34:22.786Z,100620
2017-08-24T21:39:25.957Z,100623
2017-08-24T21:44:29.159Z,100635
2017-08-24T21:49:32.340Z,100633
2017-08-24T21:54:35.528Z,100636
2017-08-24T21:59:38.702Z,100633
2017-08-24T22:04:41.887Z,100628
2017-08-24T22:09:45.094Z,100631
2017-08-24T22:14:48.282Z,100643
2017-08-24T22:19:51.489Z,100632
2017-08-24T22:24:54.672Z,100633
2017-08-24T22:29:57.896Z,100633
2017-08-24T22:35:01.070Z,100633
2017-08-24T22:40:04.239Z,100631
2017-08-24T22:45:07.422Z,100625
2017-08-24T22:50:10.597Z,100638
2017-08-24T22:55:19.506Z,100637
2017-08-24T23:00:28.273Z,100643
2017-08-24T23:05:31.461Z,100652
2017-08-24T23:10:34.655Z,100648
2017-08-24T23:15:37.835Z,100647
2017-08-24T23:20:40.986Z,100651
2017-08-24T23:25:44.243Z,100655
2017-08-24T23:30:47.413Z,100649
2017-08-24T23:35:50.594Z,100653
2017-08-24T23:40:53.789Z,100650
2017-08-24T23:45:57.012Z,100648
2017-08-24T23:51:00.237Z,100638
2017-08-24T23:56:03.437Z,100646
